Andersonburg, Pennsylvania
Current Conditions -  °F | °C
As of 8:56 PM on Wednesday 17 Dec 2014 (Local Time) from KCXY Reporting Station
Overcast Overcast  
Wind Chill: 30°   Ceiling: 4200
Heat Index: 38°   Visibility: 10mi
Dew Point: 22°   Wind: 14mph
Humidity: 53%   Direction: 290°WNW
Pressure: 30.03"   Gusts: NA
Location:  40.3674°N, 77.4381°W
Report Text: KCXY 180156Z AUTO 29012KT 10SM OVC042 03/M06 A3003 RMK AO2 SLP173 T00331056
Loading
Personal Weather Stations






























Interactive Weather Map New forecast layout! Learn more

10-Day Weather Forecast

Advertisements
Track Severe Weather on mobile